sensor_id;sensor_type;location;lat;lon;timestamp;P1;durP1;ratioP1;P2;durP2;ratioP2
33794;SDS011;51430;52.242;21.118;2023-05-14T00:00:45;9.30;;;8.30;;
33794;SDS011;51430;52.242;21.118;2023-05-14T00:03:26;11.50;;;8.50;;
33794;SDS011;51430;52.242;21.118;2023-05-14T00:05:54;11.40;;;9.00;;
33794;SDS011;51430;52.242;21.118;2023-05-14T00:08:22;10.30;;;9.20;;
33794;SDS011;51430;52.242;21.118;2023-05-14T00:10:50;9.50;;;8.60;;
33794;SDS011;51430;52.242;21.118;2023-05-14T00:13:18;9.80;;;8.80;;
33794;SDS011;51430;52.242;21.118;2023-05-14T00:15:46;10.90;;;8.90;;
33794;SDS011;51430;52.242;21.118;2023-05-14T00:18:14;11.80;;;8.70;;
33794;SDS011;51430;52.242;21.118;2023-05-14T00:20:42;9.80;;;8.80;;
33794;SDS011;51430;52.242;21.118;2023-05-14T00:23:09;12.40;;;8.70;;
33794;SDS011;51430;52.242;21.118;2023-05-14T00:25:37;10.40;;;8.40;;
33794;SDS011;51430;52.242;21.118;2023-05-14T00:28:05;9.90;;;8.60;;
33794;SDS011;51430;52.242;21.118;2023-05-14T00:30:33;10.30;;;8.90;;
33794;SDS011;51430;52.242;21.118;2023-05-14T00:33:02;9.70;;;8.70;;
33794;SDS011;51430;52.242;21.118;2023-05-14T00:35:30;9.30;;;8.20;;
33794;SDS011;51430;52.242;21.118;2023-05-14T00:37:58;10.10;;;8.20;;
33794;SDS011;51430;52.242;21.118;2023-05-14T00:40:26;9.90;;;8.50;;
33794;SDS011;51430;52.242;21.118;2023-05-14T00:42:54;12.30;;;8.90;;
33794;SDS011;51430;52.242;21.118;2023-05-14T00:45:23;9.90;;;8.50;;
33794;SDS011;51430;52.242;21.118;2023-05-14T00:47:51;9.20;;;8.10;;
33794;SDS011;51430;52.242;21.118;2023-05-14T00:50:20;10.90;;;8.20;;
33794;SDS011;51430;52.242;21.118;2023-05-14T00:52:49;9.70;;;8.20;;
33794;SDS011;51430;52.242;21.118;2023-05-14T00:55:16;10.50;;;8.10;;
33794;SDS011;51430;52.242;21.118;2023-05-14T00:57:45;13.00;;;8.90;;
33794;SDS011;51430;52.242;21.118;2023-05-14T01:00:13;10.10;;;8.40;;
33794;SDS011;51430;52.242;21.118;2023-05-14T01:02:41;10.50;;;8.60;;
33794;SDS011;51430;52.242;21.118;2023-05-14T01:05:09;11.40;;;8.60;;
33794;SDS011;51430;52.242;21.118;2023-05-14T01:10:12;12.90;;;8.80;;
33794;SDS011;51430;52.242;21.118;2023-05-14T01:15:40;10.20;;;9.20;;
33794;SDS011;51430;52.242;21.118;2023-05-14T01:18:12;10.40;;;9.30;;
33794;SDS011;51430;52.242;21.118;2023-05-14T01:20:43;10.40;;;9.00;;
33794;SDS011;51430;52.242;21.118;2023-05-14T01:23:12;11.60;;;9.40;;
33794;SDS011;51430;52.242;21.118;2023-05-14T01:25:40;12.20;;;9.60;;
33794;SDS011;51430;52.242;21.118;2023-05-14T01:28:11;12.00;;;9.50;;
33794;SDS011;51430;52.242;21.118;2023-05-14T01:30:52;11.70;;;9.40;;
33794;SDS011;51430;52.242;21.118;2023-05-14T01:33:25;13.20;;;9.60;;
33794;SDS011;51430;52.242;21.118;2023-05-14T01:35:55;12.20;;;9.70;;
33794;SDS011;51430;52.242;21.118;2023-05-14T01:38:25;13.40;;;10.10;;
33794;SDS011;51430;52.242;21.118;2023-05-14T01:40:56;12.40;;;10.20;;
33794;SDS011;51430;52.242;21.118;2023-05-14T01:43:25;12.00;;;10.70;;
33794;SDS011;51430;52.242;21.118;2023-05-14T01:45:54;12.00;;;10.80;;
33794;SDS011;51430;52.242;21.118;2023-05-14T01:48:22;12.60;;;10.60;;
33794;SDS011;51430;52.242;21.118;2023-05-14T01:50:50;17.10;;;11.50;;
33794;SDS011;51430;52.242;21.118;2023-05-14T01:53:17;14.80;;;11.50;;
33794;SDS011;51430;52.242;21.118;2023-05-14T01:55:45;12.20;;;10.90;;
33794;SDS011;51430;52.242;21.118;2023-05-14T01:58:13;12.10;;;10.90;;
33794;SDS011;51430;52.242;21.118;2023-05-14T02:00:40;12.20;;;10.70;;
33794;SDS011;51430;52.242;21.118;2023-05-14T02:03:08;13.50;;;10.80;;
33794;SDS011;51430;52.242;21.118;2023-05-14T02:05:36;12.80;;;11.10;;
33794;SDS011;51430;52.242;21.118;2023-05-14T02:08:04;12.70;;;10.90;;
33794;SDS011;51430;52.242;21.118;2023-05-14T02:10:31;12.20;;;11.00;;
33794;SDS011;51430;52.242;21.118;2023-05-14T02:12:59;12.70;;;11.40;;
33794;SDS011;51430;52.242;21.118;2023-05-14T02:15:27;14.90;;;11.80;;
33794;SDS011;51430;52.242;21.118;2023-05-14T02:17:55;13.50;;;11.30;;
33794;SDS011;51430;52.242;21.118;2023-05-14T02:20:22;12.20;;;10.90;;
33794;SDS011;51430;52.242;21.118;2023-05-14T02:22:51;12.40;;;11.10;;
33794;SDS011;51430;52.242;21.118;2023-05-14T02:25:18;14.40;;;11.40;;
33794;SDS011;51430;52.242;21.118;2023-05-14T02:27:47;12.70;;;11.40;;
33794;SDS011;51430;52.242;21.118;2023-05-14T02:30:15;14.80;;;11.60;;
33794;SDS011;51430;52.242;21.118;2023-05-14T02:32:43;13.70;;;11.80;;
33794;SDS011;51430;52.242;21.118;2023-05-14T02:35:11;14.40;;;12.20;;
33794;SDS011;51430;52.242;21.118;2023-05-14T02:37:38;17.60;;;15.70;;
33794;SDS011;51430;52.242;21.118;2023-05-14T02:40:06;15.70;;;13.50;;
33794;SDS011;51430;52.242;21.118;2023-05-14T02:42:37;16.20;;;12.80;;
33794;SDS011;51430;52.242;21.118;2023-05-14T02:45:05;14.20;;;12.90;;
33794;SDS011;51430;52.242;21.118;2023-05-14T02:47:33;14.10;;;12.70;;
33794;SDS011;51430;52.242;21.118;2023-05-14T02:50:04;16.80;;;13.40;;
33794;SDS011;51430;52.242;21.118;2023-05-14T02:52:33;14.50;;;12.60;;
33794;SDS011;51430;52.242;21.118;2023-05-14T02:55:01;14.10;;;12.50;;
33794;SDS011;51430;52.242;21.118;2023-05-14T03:04:53;14.80;;;12.60;;
33794;SDS011;51430;52.242;21.118;2023-05-14T03:07:21;15.20;;;13.40;;
33794;SDS011;51430;52.242;21.118;2023-05-14T03:09:48;14.40;;;12.90;;
33794;SDS011;51430;52.242;21.118;2023-05-14T03:12:16;14.10;;;12.50;;
33794;SDS011;51430;52.242;21.118;2023-05-14T03:14:44;13.80;;;12.30;;
33794;SDS011;51430;52.242;21.118;2023-05-14T03:17:12;13.70;;;12.30;;
33794;SDS011;51430;52.242;21.118;2023-05-14T03:19:39;13.20;;;11.90;;
33794;SDS011;51430;52.242;21.118;2023-05-14T03:22:07;14.10;;;12.30;;
33794;SDS011;51430;52.242;21.118;2023-05-14T03:24:37;13.30;;;11.90;;
33794;SDS011;51430;52.242;21.118;2023-05-14T03:27:06;14.50;;;12.20;;
33794;SDS011;51430;52.242;21.118;2023-05-14T03:29:33;13.20;;;11.90;;
33794;SDS011;51430;52.242;21.118;2023-05-14T03:32:01;13.00;;;11.70;;
33794;SDS011;51430;52.242;21.118;2023-05-14T03:34:29;14.30;;;12.30;;
33794;SDS011;51430;52.242;21.118;2023-05-14T03:36:56;13.40;;;12.00;;
33794;SDS011;51430;52.242;21.118;2023-05-14T03:39:24;13.20;;;11.80;;
33794;SDS011;51430;52.242;21.118;2023-05-14T03:41:52;14.70;;;13.00;;
33794;SDS011;51430;52.242;21.118;2023-05-14T03:44:19;14.50;;;12.30;;
33794;SDS011;51430;52.242;21.118;2023-05-14T03:46:48;14.20;;;12.70;;
33794;SDS011;51430;52.242;21.118;2023-05-14T03:49:16;13.30;;;12.00;;
33794;SDS011;51430;52.242;21.118;2023-05-14T03:51:44;13.40;;;12.00;;
33794;SDS011;51430;52.242;21.118;2023-05-14T03:54:11;13.80;;;11.80;;
33794;SDS011;51430;52.242;21.118;2023-05-14T03:56:39;13.10;;;11.80;;
33794;SDS011;51430;52.242;21.118;2023-05-14T03:59:07;13.40;;;12.10;;
33794;SDS011;51430;52.242;21.118;2023-05-14T04:01:35;13.00;;;11.80;;
33794;SDS011;51430;52.242;21.118;2023-05-14T04:04:02;13.50;;;12.00;;
33794;SDS011;51430;52.242;21.118;2023-05-14T04:06:31;12.50;;;11.30;;
33794;SDS011;51430;52.242;21.118;2023-05-14T04:08:59;13.80;;;11.60;;
33794;SDS011;51430;52.242;21.118;2023-05-14T04:11:27;12.70;;;11.30;;
33794;SDS011;51430;52.242;21.118;2023-05-14T04:13:55;13.30;;;12.00;;
33794;SDS011;51430;52.242;21.118;2023-05-14T04:16:23;12.80;;;11.40;;
33794;SDS011;51430;52.242;21.118;2023-05-14T04:18:51;12.70;;;11.40;;
33794;SDS011;51430;52.242;21.118;2023-05-14T04:21:18;13.20;;;11.40;;
33794;SDS011;51430;52.242;21.118;2023-05-14T04:23:46;12.40;;;11.10;;
33794;SDS011;51430;52.242;21.118;2023-05-14T04:26:14;13.40;;;11.10;;
33794;SDS011;51430;52.242;21.118;2023-05-14T04:28:42;11.50;;;10.30;;
33794;SDS011;51430;52.242;21.118;2023-05-14T04:31:10;12.60;;;11.10;;
33794;SDS011;51430;52.242;21.118;2023-05-14T04:33:38;11.50;;;10.20;;
33794;SDS011;51430;52.242;21.118;2023-05-14T04:36:06;11.20;;;10.10;;
33794;SDS011;51430;52.242;21.118;2023-05-14T04:38:35;12.70;;;10.40;;
33794;SDS011;51430;52.242;21.118;2023-05-14T04:41:03;13.10;;;10.40;;
33794;SDS011;51430;52.242;21.118;2023-05-14T04:43:31;11.70;;;10.40;;
33794;SDS011;51430;52.242;21.118;2023-05-14T04:45:58;11.40;;;10.20;;
33794;SDS011;51430;52.242;21.118;2023-05-14T04:48:26;12.80;;;10.60;;
33794;SDS011;51430;52.242;21.118;2023-05-14T04:50:54;11.20;;;10.00;;
33794;SDS011;51430;52.242;21.118;2023-05-14T04:53:22;11.30;;;10.10;;
33794;SDS011;51430;52.242;21.118;2023-05-14T04:55:50;11.50;;;10.30;;
33794;SDS011;51430;52.242;21.118;2023-05-14T04:58:18;11.80;;;10.10;;
33794;SDS011;51430;52.242;21.118;2023-05-14T05:00:46;11.40;;;10.00;;
33794;SDS011;51430;52.242;21.118;2023-05-14T05:03:13;10.30;;;9.30;;
33794;SDS011;51430;52.242;21.118;2023-05-14T05:05:41;10.70;;;9.60;;
33794;SDS011;51430;52.242;21.118;2023-05-14T05:08:09;12.20;;;9.90;;
33794;SDS011;51430;52.242;21.118;2023-05-14T05:10:37;10.80;;;9.70;;
33794;SDS011;51430;52.242;21.118;2023-05-14T05:13:05;12.10;;;9.80;;
33794;SDS011;51430;52.242;21.118;2023-05-14T05:15:33;11.10;;;9.60;;
33794;SDS011;51430;52.242;21.118;2023-05-14T05:18:01;10.80;;;9.50;;
33794;SDS011;51430;52.242;21.118;2023-05-14T05:20:30;13.40;;;9.90;;
33794;SDS011;51430;52.242;21.118;2023-05-14T05:22:58;9.60;;;8.50;;
33794;SDS011;51430;52.242;21.118;2023-05-14T05:25:26;10.70;;;9.50;;
33794;SDS011;51430;52.242;21.118;2023-05-14T05:27:54;10.40;;;9.30;;
33794;SDS011;51430;52.242;21.118;2023-05-14T05:30:22;10.60;;;9.30;;
33794;SDS011;51430;52.242;21.118;2023-05-14T05:32:50;10.80;;;9.20;;
33794;SDS011;51430;52.242;21.118;2023-05-14T05:35:18;11.80;;;8.80;;
33794;SDS011;51430;52.242;21.118;2023-05-14T05:37:46;12.40;;;8.60;;
33794;SDS011;51430;52.242;21.118;2023-05-14T05:40:13;12.00;;;8.40;;
33794;SDS011;51430;52.242;21.118;2023-05-14T05:42:42;11.70;;;8.10;;
33794;SDS011;51430;52.242;21.118;2023-05-14T05:45:09;9.70;;;7.80;;
33794;SDS011;51430;52.242;21.118;2023-05-14T05:47:39;9.10;;;7.60;;
33794;SDS011;51430;52.242;21.118;2023-05-14T05:50:06;8.90;;;7.60;;
33794;SDS011;51430;52.242;21.118;2023-05-14T05:52:36;9.60;;;7.60;;
33794;SDS011;51430;52.242;21.118;2023-05-14T05:55:05;9.20;;;7.40;;
33794;SDS011;51430;52.242;21.118;2023-05-14T05:57:33;10.60;;;7.30;;
33794;SDS011;51430;52.242;21.118;2023-05-14T06:00:01;8.30;;;7.30;;
33794;SDS011;51430;52.242;21.118;2023-05-14T06:02:42;10.40;;;6.90;;
33794;SDS011;51430;52.242;21.118;2023-05-14T06:05:10;10.00;;;7.10;;
33794;SDS011;51430;52.242;21.118;2023-05-14T06:07:39;11.50;;;7.10;;
33794;SDS011;51430;52.242;21.118;2023-05-14T06:10:06;9.20;;;7.10;;
33794;SDS011;51430;52.242;21.118;2023-05-14T06:12:34;10.20;;;6.70;;
33794;SDS011;51430;52.242;21.118;2023-05-14T06:15:02;8.20;;;6.90;;
33794;SDS011;51430;52.242;21.118;2023-05-14T06:17:30;14.10;;;12.60;;
33794;SDS011;51430;52.242;21.118;2023-05-14T06:19:58;11.80;;;8.60;;
33794;SDS011;51430;52.242;21.118;2023-05-14T06:22:25;9.60;;;6.80;;
33794;SDS011;51430;52.242;21.118;2023-05-14T06:24:54;8.80;;;6.50;;
33794;SDS011;51430;52.242;21.118;2023-05-14T06:27:22;9.40;;;6.90;;
33794;SDS011;51430;52.242;21.118;2023-05-14T06:29:50;8.10;;;6.80;;
33794;SDS011;51430;52.242;21.118;2023-05-14T06:32:18;8.90;;;6.40;;
33794;SDS011;51430;52.242;21.118;2023-05-14T06:34:47;8.60;;;5.80;;
33794;SDS011;51430;52.242;21.118;2023-05-14T06:37:15;11.40;;;6.10;;
33794;SDS011;51430;52.242;21.118;2023-05-14T06:39:43;8.00;;;6.30;;
33794;SDS011;51430;52.242;21.118;2023-05-14T06:42:16;8.20;;;6.10;;
33794;SDS011;51430;52.242;21.118;2023-05-14T06:44:45;8.90;;;5.90;;
33794;SDS011;51430;52.242;21.118;2023-05-14T06:47:13;9.70;;;5.70;;
33794;SDS011;51430;52.242;21.118;2023-05-14T06:49:42;9.90;;;6.20;;
33794;SDS011;51430;52.242;21.118;2023-05-14T06:52:10;9.70;;;5.90;;
33794;SDS011;51430;52.242;21.118;2023-05-14T06:54:39;9.30;;;5.70;;
33794;SDS011;51430;52.242;21.118;2023-05-14T06:57:07;9.00;;;5.70;;
33794;SDS011;51430;52.242;21.118;2023-05-14T06:59:35;7.80;;;5.20;;
33794;SDS011;51430;52.242;21.118;2023-05-14T07:02:03;7.60;;;5.00;;
33794;SDS011;51430;52.242;21.118;2023-05-14T07:04:31;7.70;;;4.80;;
33794;SDS011;51430;52.242;21.118;2023-05-14T07:06:59;6.60;;;4.50;;
33794;SDS011;51430;52.242;21.118;2023-05-14T07:09:28;9.10;;;4.60;;
33794;SDS011;51430;52.242;21.118;2023-05-14T07:11:55;6.30;;;4.80;;
33794;SDS011;51430;52.242;21.118;2023-05-14T07:14:23;9.00;;;4.50;;
33794;SDS011;51430;52.242;21.118;2023-05-14T07:16:51;6.10;;;4.00;;
33794;SDS011;51430;52.242;21.118;2023-05-14T07:19:19;7.30;;;4.20;;
33794;SDS011;51430;52.242;21.118;2023-05-14T07:21:47;7.80;;;4.00;;
33794;SDS011;51430;52.242;21.118;2023-05-14T07:24:15;6.70;;;4.00;;
33794;SDS011;51430;52.242;21.118;2023-05-14T07:26:43;6.40;;;4.00;;
33794;SDS011;51430;52.242;21.118;2023-05-14T07:29:12;6.70;;;4.00;;
33794;SDS011;51430;52.242;21.118;2023-05-14T07:31:40;6.40;;;4.10;;
33794;SDS011;51430;52.242;21.118;2023-05-14T07:34:08;7.20;;;4.20;;
33794;SDS011;51430;52.242;21.118;2023-05-14T07:36:38;5.90;;;4.10;;
33794;SDS011;51430;52.242;21.118;2023-05-14T07:39:08;6.70;;;3.50;;
33794;SDS011;51430;52.242;21.118;2023-05-14T07:41:37;7.40;;;3.80;;
33794;SDS011;51430;52.242;21.118;2023-05-14T07:44:05;6.40;;;3.40;;
33794;SDS011;51430;52.242;21.118;2023-05-14T07:46:33;7.30;;;3.20;;
33794;SDS011;51430;52.242;21.118;2023-05-14T07:49:02;7.90;;;3.50;;
33794;SDS011;51430;52.242;21.118;2023-05-14T07:51:30;6.10;;;3.50;;
33794;SDS011;51430;52.242;21.118;2023-05-14T07:54:00;7.00;;;3.50;;
33794;SDS011;51430;52.242;21.118;2023-05-14T07:56:28;6.60;;;3.40;;
33794;SDS011;51430;52.242;21.118;2023-05-14T07:58:56;5.60;;;3.10;;
33794;SDS011;51430;52.242;21.118;2023-05-14T08:01:24;4.70;;;3.00;;
33794;SDS011;51430;52.242;21.118;2023-05-14T08:03:53;6.50;;;3.10;;
33794;SDS011;51430;52.242;21.118;2023-05-14T08:06:21;5.60;;;2.80;;
33794;SDS011;51430;52.242;21.118;2023-05-14T08:08:50;6.00;;;3.10;;
33794;SDS011;51430;52.242;21.118;2023-05-14T08:11:18;7.10;;;2.70;;
33794;SDS011;51430;52.242;21.118;2023-05-14T08:13:48;5.70;;;3.10;;
33794;SDS011;51430;52.242;21.118;2023-05-14T08:16:16;4.60;;;3.10;;
33794;SDS011;51430;52.242;21.118;2023-05-14T08:18:44;5.30;;;3.00;;
33794;SDS011;51430;52.242;21.118;2023-05-14T08:21:13;6.10;;;3.10;;
33794;SDS011;51430;52.242;21.118;2023-05-14T08:23:40;4.80;;;2.80;;
33794;SDS011;51430;52.242;21.118;2023-05-14T08:26:08;5.30;;;3.30;;
33794;SDS011;51430;52.242;21.118;2023-05-14T08:28:36;5.90;;;2.80;;
33794;SDS011;51430;52.242;21.118;2023-05-14T08:31:03;5.60;;;2.90;;
33794;SDS011;51430;52.242;21.118;2023-05-14T08:33:32;4.30;;;3.00;;
33794;SDS011;51430;52.242;21.118;2023-05-14T08:35:59;5.50;;;3.00;;
33794;SDS011;51430;52.242;21.118;2023-05-14T08:38:28;4.90;;;2.90;;
33794;SDS011;51430;52.242;21.118;2023-05-14T08:40:58;6.50;;;3.10;;
33794;SDS011;51430;52.242;21.118;2023-05-14T08:43:30;7.40;;;3.30;;
33794;SDS011;51430;52.242;21.118;2023-05-14T08:46:22;8.00;;;3.40;;
33794;SDS011;51430;52.242;21.118;2023-05-14T08:48:53;6.00;;;3.30;;
33794;SDS011;51430;52.242;21.118;2023-05-14T08:51:31;6.30;;;3.00;;
33794;SDS011;51430;52.242;21.118;2023-05-14T08:53:59;4.80;;;2.80;;
33794;SDS011;51430;52.242;21.118;2023-05-14T08:56:30;4.60;;;2.70;;
33794;SDS011;51430;52.242;21.118;2023-05-14T08:58:59;5.70;;;3.10;;
33794;SDS011;51430;52.242;21.118;2023-05-14T09:01:27;5.10;;;2.70;;
33794;SDS011;51430;52.242;21.118;2023-05-14T09:03:56;4.20;;;2.80;;
33794;SDS011;51430;52.242;21.118;2023-05-14T09:06:25;4.40;;;2.70;;
33794;SDS011;51430;52.242;21.118;2023-05-14T09:08:53;3.70;;;2.40;;
33794;SDS011;51430;52.242;21.118;2023-05-14T09:11:22;4.30;;;2.70;;
33794;SDS011;51430;52.242;21.118;2023-05-14T09:13:51;3.80;;;2.40;;
33794;SDS011;51430;52.242;21.118;2023-05-14T09:16:18;3.30;;;2.50;;
33794;SDS011;51430;52.242;21.118;2023-05-14T09:18:47;5.40;;;2.60;;
33794;SDS011;51430;52.242;21.118;2023-05-14T09:21:15;4.30;;;2.30;;
33794;SDS011;51430;52.242;21.118;2023-05-14T09:23:45;4.60;;;2.60;;
33794;SDS011;51430;52.242;21.118;2023-05-14T09:26:17;4.90;;;2.40;;
33794;SDS011;51430;52.242;21.118;2023-05-14T09:28:45;3.40;;;2.60;;
33794;SDS011;51430;52.242;21.118;2023-05-14T09:31:13;6.90;;;2.40;;
33794;SDS011;51430;52.242;21.118;2023-05-14T09:33:41;3.40;;;2.30;;
33794;SDS011;51430;52.242;21.118;2023-05-14T09:36:10;4.70;;;2.40;;
33794;SDS011;51430;52.242;21.118;2023-05-14T09:38:37;4.20;;;2.40;;
33794;SDS011;51430;52.242;21.118;2023-05-14T09:41:05;4.40;;;2.40;;
33794;SDS011;51430;52.242;21.118;2023-05-14T09:43:33;3.20;;;2.50;;
33794;SDS011;51430;52.242;21.118;2023-05-14T09:46:00;3.60;;;2.20;;
33794;SDS011;51430;52.242;21.118;2023-05-14T09:48:28;3.90;;;2.20;;
33794;SDS011;51430;52.242;21.118;2023-05-14T09:50:56;3.00;;;2.10;;
33794;SDS011;51430;52.242;21.118;2023-05-14T09:53:24;4.80;;;2.30;;
33794;SDS011;51430;52.242;21.118;2023-05-14T09:55:52;3.50;;;2.20;;
33794;SDS011;51430;52.242;21.118;2023-05-14T09:58:20;4.10;;;2.00;;
33794;SDS011;51430;52.242;21.118;2023-05-14T10:00:48;4.90;;;2.20;;
33794;SDS011;51430;52.242;21.118;2023-05-14T10:03:17;3.80;;;2.40;;
33794;SDS011;51430;52.242;21.118;2023-05-14T10:05:47;3.50;;;2.40;;
33794;SDS011;51430;52.242;21.118;2023-05-14T10:08:34;5.30;;;2.50;;
33794;SDS011;51430;52.242;21.118;2023-05-14T10:11:04;5.00;;;2.40;;
33794;SDS011;51430;52.242;21.118;2023-05-14T10:13:40;5.90;;;3.40;;
33794;SDS011;51430;52.242;21.118;2023-05-14T10:16:11;4.80;;;2.50;;
33794;SDS011;51430;52.242;21.118;2023-05-14T10:18:55;4.80;;;2.30;;
33794;SDS011;51430;52.242;21.118;2023-05-14T10:21:29;6.60;;;2.80;;
33794;SDS011;51430;52.242;21.118;2023-05-14T10:24:00;4.80;;;2.30;;
33794;SDS011;51430;52.242;21.118;2023-05-14T10:26:37;4.40;;;2.10;;
33794;SDS011;51430;52.242;21.118;2023-05-14T10:29:09;4.00;;;2.30;;
33794;SDS011;51430;52.242;21.118;2023-05-14T10:31:45;3.30;;;2.30;;
33794;SDS011;51430;52.242;21.118;2023-05-14T10:37:10;3.90;;;2.00;;
33794;SDS011;51430;52.242;21.118;2023-05-14T10:42:20;5.80;;;2.20;;
33794;SDS011;51430;52.242;21.118;2023-05-14T10:47:22;3.20;;;2.30;;
33794;SDS011;51430;52.242;21.118;2023-05-14T10:49:52;4.30;;;2.30;;
33794;SDS011;51430;52.242;21.118;2023-05-14T10:52:22;3.40;;;2.20;;
33794;SDS011;51430;52.242;21.118;2023-05-14T10:54:55;5.30;;;2.10;;
33794;SDS011;51430;52.242;21.118;2023-05-14T10:57:24;3.30;;;2.20;;
33794;SDS011;51430;52.242;21.118;2023-05-14T10:59:56;2.40;;;2.10;;
33794;SDS011;51430;52.242;21.118;2023-05-14T11:02:26;4.80;;;2.20;;
33794;SDS011;51430;52.242;21.118;2023-05-14T11:04:59;3.90;;;2.10;;
33794;SDS011;51430;52.242;21.118;2023-05-14T11:07:38;6.60;;;2.80;;
33794;SDS011;51430;52.242;21.118;2023-05-14T11:10:15;4.60;;;2.60;;
33794;SDS011;51430;52.242;21.118;2023-05-14T11:12:45;4.80;;;2.40;;
33794;SDS011;51430;52.242;21.118;2023-05-14T11:15:15;4.00;;;2.20;;
33794;SDS011;51430;52.242;21.118;2023-05-14T11:17:45;4.80;;;2.50;;
33794;SDS011;51430;52.242;21.118;2023-05-14T11:20:14;3.60;;;2.40;;
33794;SDS011;51430;52.242;21.118;2023-05-14T11:22:46;3.80;;;2.50;;
33794;SDS011;51430;52.242;21.118;2023-05-14T11:25:15;5.90;;;2.40;;
33794;SDS011;51430;52.242;21.118;2023-05-14T11:27:44;3.90;;;2.60;;
33794;SDS011;51430;52.242;21.118;2023-05-14T11:30:17;6.00;;;3.10;;
33794;SDS011;51430;52.242;21.118;2023-05-14T11:32:46;3.60;;;2.30;;
33794;SDS011;51430;52.242;21.118;2023-05-14T11:35:16;5.20;;;2.90;;
33794;SDS011;51430;52.242;21.118;2023-05-14T11:37:49;3.10;;;2.10;;
33794;SDS011;51430;52.242;21.118;2023-05-14T11:40:18;6.00;;;2.20;;
33794;SDS011;51430;52.242;21.118;2023-05-14T11:42:48;5.20;;;2.40;;
33794;SDS011;51430;52.242;21.118;2023-05-14T11:45:26;4.50;;;2.70;;
33794;SDS011;51430;52.242;21.118;2023-05-14T11:47:56;4.50;;;3.90;;
33794;SDS011;51430;52.242;21.118;2023-05-14T11:50:24;3.20;;;2.40;;
33794;SDS011;51430;52.242;21.118;2023-05-14T11:52:55;3.10;;;2.50;;
33794;SDS011;51430;52.242;21.118;2023-05-14T11:55:23;2.50;;;2.20;;
33794;SDS011;51430;52.242;21.118;2023-05-14T11:57:53;4.10;;;2.10;;
33794;SDS011;51430;52.242;21.118;2023-05-14T12:00:21;4.40;;;1.90;;
33794;SDS011;51430;52.242;21.118;2023-05-14T12:02:51;5.00;;;2.20;;
33794;SDS011;51430;52.242;21.118;2023-05-14T12:05:19;5.40;;;2.50;;
33794;SDS011;51430;52.242;21.118;2023-05-14T12:07:47;4.00;;;2.40;;
33794;SDS011;51430;52.242;21.118;2023-05-14T12:10:15;3.60;;;2.30;;
33794;SDS011;51430;52.242;21.118;2023-05-14T12:12:44;3.50;;;2.20;;
33794;SDS011;51430;52.242;21.118;2023-05-14T12:15:13;5.20;;;2.10;;
33794;SDS011;51430;52.242;21.118;2023-05-14T12:17:48;2.70;;;2.20;;
33794;SDS011;51430;52.242;21.118;2023-05-14T12:20:18;3.10;;;2.10;;
33794;SDS011;51430;52.242;21.118;2023-05-14T12:22:47;4.20;;;2.30;;
33794;SDS011;51430;52.242;21.118;2023-05-14T12:25:15;3.40;;;2.40;;
33794;SDS011;51430;52.242;21.118;2023-05-14T12:27:43;2.50;;;2.30;;
33794;SDS011;51430;52.242;21.118;2023-05-14T12:34:30;4.00;;;2.20;;
33794;SDS011;51430;52.242;21.118;2023-05-14T12:36:57;4.30;;;1.90;;
33794;SDS011;51430;52.242;21.118;2023-05-14T12:39:25;3.20;;;2.30;;
33794;SDS011;51430;52.242;21.118;2023-05-14T12:41:53;3.60;;;2.10;;
33794;SDS011;51430;52.242;21.118;2023-05-14T12:44:20;2.30;;;1.90;;
33794;SDS011;51430;52.242;21.118;2023-05-14T12:46:49;4.50;;;2.20;;
33794;SDS011;51430;52.242;21.118;2023-05-14T12:49:17;3.60;;;2.20;;
33794;SDS011;51430;52.242;21.118;2023-05-14T12:51:45;9.30;;;8.40;;
33794;SDS011;51430;52.242;21.118;2023-05-14T12:57:31;6.80;;;2.10;;
33794;SDS011;51430;52.242;21.118;2023-05-14T13:00:02;4.10;;;1.80;;
33794;SDS011;51430;52.242;21.118;2023-05-14T13:02:38;5.00;;;1.90;;
33794;SDS011;51430;52.242;21.118;2023-05-14T13:05:10;2.10;;;1.90;;
33794;SDS011;51430;52.242;21.118;2023-05-14T13:07:38;5.30;;;1.90;;
33794;SDS011;51430;52.242;21.118;2023-05-14T13:10:07;5.20;;;2.00;;
33794;SDS011;51430;52.242;21.118;2023-05-14T13:12:35;3.50;;;2.00;;
33794;SDS011;51430;52.242;21.118;2023-05-14T13:15:05;4.20;;;1.80;;
33794;SDS011;51430;52.242;21.118;2023-05-14T13:21:54;4.00;;;1.90;;
33794;SDS011;51430;52.242;21.118;2023-05-14T13:24:22;3.80;;;1.90;;
33794;SDS011;51430;52.242;21.118;2023-05-14T13:26:51;3.90;;;1.90;;
33794;SDS011;51430;52.242;21.118;2023-05-14T13:29:21;4.20;;;2.10;;
33794;SDS011;51430;52.242;21.118;2023-05-14T13:31:49;4.90;;;1.90;;
33794;SDS011;51430;52.242;21.118;2023-05-14T13:34:17;3.50;;;2.00;;
33794;SDS011;51430;52.242;21.118;2023-05-14T13:36:45;2.90;;;1.70;;
33794;SDS011;51430;52.242;21.118;2023-05-14T13:39:16;4.80;;;2.00;;
33794;SDS011;51430;52.242;21.118;2023-05-14T13:41:44;5.10;;;2.00;;
33794;SDS011;51430;52.242;21.118;2023-05-14T13:44:13;3.10;;;1.90;;
33794;SDS011;51430;52.242;21.118;2023-05-14T13:46:41;3.70;;;1.90;;
33794;SDS011;51430;52.242;21.118;2023-05-14T13:49:10;2.70;;;1.70;;
33794;SDS011;51430;52.242;21.118;2023-05-14T13:51:38;4.60;;;2.20;;
33794;SDS011;51430;52.242;21.118;2023-05-14T13:54:07;4.50;;;1.90;;
33794;SDS011;51430;52.242;21.118;2023-05-14T13:56:35;3.40;;;1.90;;
33794;SDS011;51430;52.242;21.118;2023-05-14T13:59:03;2.40;;;1.90;;
33794;SDS011;51430;52.242;21.118;2023-05-14T14:01:32;4.30;;;1.90;;
33794;SDS011;51430;52.242;21.118;2023-05-14T14:04:01;3.60;;;2.10;;
33794;SDS011;51430;52.242;21.118;2023-05-14T14:06:30;3.60;;;1.90;;
33794;SDS011;51430;52.242;21.118;2023-05-14T14:09:04;4.50;;;2.00;;
33794;SDS011;51430;52.242;21.118;2023-05-14T14:11:32;2.90;;;1.80;;
33794;SDS011;51430;52.242;21.118;2023-05-14T14:14:00;3.10;;;2.00;;
33794;SDS011;51430;52.242;21.118;2023-05-14T14:16:29;4.30;;;2.20;;
33794;SDS011;51430;52.242;21.118;2023-05-14T14:18:57;3.90;;;2.00;;
33794;SDS011;51430;52.242;21.118;2023-05-14T14:21:26;4.40;;;2.10;;
33794;SDS011;51430;52.242;21.118;2023-05-14T14:23:54;4.00;;;2.10;;
33794;SDS011;51430;52.242;21.118;2023-05-14T14:26:23;3.40;;;2.00;;
33794;SDS011;51430;52.242;21.118;2023-05-14T14:28:51;4.50;;;2.00;;
33794;SDS011;51430;52.242;21.118;2023-05-14T14:31:19;2.70;;;1.90;;
33794;SDS011;51430;52.242;21.118;2023-05-14T14:33:48;3.40;;;2.20;;
33794;SDS011;51430;52.242;21.118;2023-05-14T14:36:16;3.40;;;2.10;;
33794;SDS011;51430;52.242;21.118;2023-05-14T14:38:43;4.20;;;2.00;;
33794;SDS011;51430;52.242;21.118;2023-05-14T14:41:11;4.00;;;1.80;;
33794;SDS011;51430;52.242;21.118;2023-05-14T14:43:39;4.10;;;2.00;;
33794;SDS011;51430;52.242;21.118;2023-05-14T14:46:07;4.60;;;2.00;;
33794;SDS011;51430;52.242;21.118;2023-05-14T14:48:36;4.10;;;2.20;;
33794;SDS011;51430;52.242;21.118;2023-05-14T14:51:04;4.20;;;2.20;;
33794;SDS011;51430;52.242;21.118;2023-05-14T14:53:33;4.60;;;2.30;;
33794;SDS011;51430;52.242;21.118;2023-05-14T14:56:02;4.50;;;1.80;;
33794;SDS011;51430;52.242;21.118;2023-05-14T14:58:30;3.60;;;2.10;;
33794;SDS011;51430;52.242;21.118;2023-05-14T15:00:58;3.00;;;1.90;;
33794;SDS011;51430;52.242;21.118;2023-05-14T15:03:27;4.70;;;2.30;;
33794;SDS011;51430;52.242;21.118;2023-05-14T15:05:55;5.10;;;2.30;;
33794;SDS011;51430;52.242;21.118;2023-05-14T15:08:24;4.50;;;1.90;;